sensor_id;sensor_type;location;lat;lon;timestamp;P1;durP1;ratioP1;P2;durP2;ratioP2
6564;SDS011;3316;44.118;27.258;2022-10-22T00:00:31;3.90;;;2.67;;
6564;SDS011;3316;44.118;27.258;2022-10-22T00:02:57;4.90;;;3.30;;
6564;SDS011;3316;44.118;27.258;2022-10-22T00:05:22;6.07;;;3.27;;
6564;SDS011;3316;44.118;27.258;2022-10-22T00:07:48;4.47;;;2.87;;
6564;SDS011;3316;44.118;27.258;2022-10-22T00:10:13;9.30;;;3.67;;
6564;SDS011;3316;44.118;27.258;2022-10-22T00:12:40;6.83;;;3.47;;
6564;SDS011;3316;44.118;27.258;2022-10-22T00:15:06;4.60;;;3.00;;
6564;SDS011;3316;44.118;27.258;2022-10-22T00:17:31;4.17;;;3.50;;
6564;SDS011;3316;44.118;27.258;2022-10-22T00:19:57;4.43;;;3.23;;
6564;SDS011;3316;44.118;27.258;2022-10-22T00:22:22;6.73;;;3.30;;
6564;SDS011;3316;44.118;27.258;2022-10-22T00:24:48;4.33;;;3.10;;
6564;SDS011;3316;44.118;27.258;2022-10-22T00:27:13;6.33;;;3.77;;
6564;SDS011;3316;44.118;27.258;2022-10-22T00:29:39;3.97;;;3.20;;
6564;SDS011;3316;44.118;27.258;2022-10-22T00:32:04;3.47;;;3.13;;
6564;SDS011;3316;44.118;27.258;2022-10-22T00:34:31;4.40;;;2.83;;
6564;SDS011;3316;44.118;27.258;2022-10-22T00:36:56;5.93;;;3.77;;
6564;SDS011;3316;44.118;27.258;2022-10-22T00:39:22;4.23;;;3.17;;
6564;SDS011;3316;44.118;27.258;2022-10-22T00:41:49;3.40;;;2.87;;
6564;SDS011;3316;44.118;27.258;2022-10-22T00:47:19;5.43;;;3.07;;
6564;SDS011;3316;44.118;27.258;2022-10-22T00:49:46;7.47;;;3.13;;
6564;SDS011;3316;44.118;27.258;2022-10-22T00:52:12;3.70;;;3.23;;
6564;SDS011;3316;44.118;27.258;2022-10-22T00:54:38;4.60;;;2.90;;
6564;SDS011;3316;44.118;27.258;2022-10-22T00:57:05;7.23;;;2.70;;
6564;SDS011;3316;44.118;27.258;2022-10-22T00:59:30;6.87;;;3.97;;
6564;SDS011;3316;44.118;27.258;2022-10-22T01:01:57;4.23;;;3.17;;
6564;SDS011;3316;44.118;27.258;2022-10-22T01:04:23;4.07;;;2.93;;
6564;SDS011;3316;44.118;27.258;2022-10-22T01:06:48;5.17;;;3.17;;
6564;SDS011;3316;44.118;27.258;2022-10-22T01:19:40;5.37;;;3.30;;
6564;SDS011;3316;44.118;27.258;2022-10-22T01:27:39;8.20;;;3.30;;
6564;SDS011;3316;44.118;27.258;2022-10-22T01:30:08;5.13;;;3.73;;
6564;SDS011;3316;44.118;27.258;2022-10-22T01:32:37;5.87;;;3.40;;
6564;SDS011;3316;44.118;27.258;2022-10-22T01:35:10;6.47;;;3.20;;
6564;SDS011;3316;44.118;27.258;2022-10-22T01:38:00;3.37;;;3.07;;
6564;SDS011;3316;44.118;27.258;2022-10-22T01:40:26;5.03;;;3.00;;
6564;SDS011;3316;44.118;27.258;2022-10-22T01:42:57;7.30;;;3.20;;
6564;SDS011;3316;44.118;27.258;2022-10-22T01:45:23;7.33;;;3.43;;
6564;SDS011;3316;44.118;27.258;2022-10-22T01:50:43;4.87;;;3.40;;
6564;SDS011;3316;44.118;27.258;2022-10-22T01:53:21;5.53;;;3.07;;
6564;SDS011;3316;44.118;27.258;2022-10-22T02:01:24;3.87;;;2.97;;
6564;SDS011;3316;44.118;27.258;2022-10-22T02:03:51;4.40;;;3.33;;
6564;SDS011;3316;44.118;27.258;2022-10-22T02:06:24;6.43;;;3.17;;
6564;SDS011;3316;44.118;27.258;2022-10-22T02:08:52;6.63;;;2.87;;
6564;SDS011;3316;44.118;27.258;2022-10-22T02:11:19;5.07;;;3.10;;
6564;SDS011;3316;44.118;27.258;2022-10-22T02:13:46;5.80;;;3.13;;
6564;SDS011;3316;44.118;27.258;2022-10-22T02:16:18;7.60;;;3.73;;
6564;SDS011;3316;44.118;27.258;2022-10-22T02:18:50;6.00;;;3.07;;
6564;SDS011;3316;44.118;27.258;2022-10-22T02:21:18;4.73;;;3.30;;
6564;SDS011;3316;44.118;27.258;2022-10-22T02:23:44;7.03;;;3.10;;
6564;SDS011;3316;44.118;27.258;2022-10-22T02:26:14;5.20;;;3.20;;
6564;SDS011;3316;44.118;27.258;2022-10-22T02:29:04;5.73;;;3.80;;
6564;SDS011;3316;44.118;27.258;2022-10-22T02:31:36;5.40;;;3.30;;
6564;SDS011;3316;44.118;27.258;2022-10-22T02:34:15;4.47;;;3.20;;
6564;SDS011;3316;44.118;27.258;2022-10-22T02:36:45;5.10;;;3.60;;
6564;SDS011;3316;44.118;27.258;2022-10-22T02:39:12;4.03;;;3.07;;
6564;SDS011;3316;44.118;27.258;2022-10-22T02:41:39;4.57;;;3.27;;
6564;SDS011;3316;44.118;27.258;2022-10-22T02:44:07;5.00;;;3.50;;
6564;SDS011;3316;44.118;27.258;2022-10-22T02:46:33;3.60;;;2.70;;
6564;SDS011;3316;44.118;27.258;2022-10-22T02:48:59;7.63;;;3.50;;
6564;SDS011;3316;44.118;27.258;2022-10-22T02:51:24;5.20;;;2.97;;
6564;SDS011;3316;44.118;27.258;2022-10-22T02:53:50;6.77;;;3.40;;
6564;SDS011;3316;44.118;27.258;2022-10-22T02:56:16;7.13;;;3.30;;
6564;SDS011;3316;44.118;27.258;2022-10-22T02:58:41;5.57;;;3.23;;
6564;SDS011;3316;44.118;27.258;2022-10-22T03:01:07;4.40;;;3.93;;
6564;SDS011;3316;44.118;27.258;2022-10-22T03:03:32;5.33;;;4.00;;
6564;SDS011;3316;44.118;27.258;2022-10-22T03:05:58;4.20;;;3.33;;
6564;SDS011;3316;44.118;27.258;2022-10-22T03:08:23;6.10;;;4.03;;
6564;SDS011;3316;44.118;27.258;2022-10-22T03:10:49;5.70;;;3.80;;
6564;SDS011;3316;44.118;27.258;2022-10-22T03:13:14;10.90;;;3.77;;
6564;SDS011;3316;44.118;27.258;2022-10-22T03:15:39;5.10;;;3.40;;
6564;SDS011;3316;44.118;27.258;2022-10-22T03:18:05;5.73;;;3.57;;
6564;SDS011;3316;44.118;27.258;2022-10-22T03:20:30;4.70;;;3.50;;
6564;SDS011;3316;44.118;27.258;2022-10-22T03:22:56;4.93;;;3.40;;
6564;SDS011;3316;44.118;27.258;2022-10-22T03:25:23;5.40;;;3.60;;
6564;SDS011;3316;44.118;27.258;2022-10-22T03:27:51;4.33;;;3.60;;
6564;SDS011;3316;44.118;27.258;2022-10-22T03:30:19;6.63;;;3.43;;
6564;SDS011;3316;44.118;27.258;2022-10-22T03:32:44;8.47;;;3.60;;
6564;SDS011;3316;44.118;27.258;2022-10-22T03:35:10;5.67;;;3.40;;
6564;SDS011;3316;44.118;27.258;2022-10-22T03:37:35;4.63;;;2.97;;
6564;SDS011;3316;44.118;27.258;2022-10-22T03:40:02;6.33;;;3.67;;
6564;SDS011;3316;44.118;27.258;2022-10-22T03:42:30;8.00;;;3.50;;
6564;SDS011;3316;44.118;27.258;2022-10-22T03:44:55;2.80;;;2.60;;
6564;SDS011;3316;44.118;27.258;2022-10-22T03:47:21;8.27;;;3.80;;
6564;SDS011;3316;44.118;27.258;2022-10-22T03:49:48;7.07;;;3.40;;
6564;SDS011;3316;44.118;27.258;2022-10-22T03:52:14;12.27;;;4.00;;
6564;SDS011;3316;44.118;27.258;2022-10-22T03:54:40;9.23;;;4.63;;
6564;SDS011;3316;44.118;27.258;2022-10-22T03:57:06;4.93;;;3.40;;
6564;SDS011;3316;44.118;27.258;2022-10-22T03:59:36;4.77;;;3.60;;
6564;SDS011;3316;44.118;27.258;2022-10-22T04:02:06;7.23;;;3.40;;
6564;SDS011;3316;44.118;27.258;2022-10-22T04:04:32;3.97;;;3.20;;
6564;SDS011;3316;44.118;27.258;2022-10-22T04:06:58;6.47;;;3.23;;
6564;SDS011;3316;44.118;27.258;2022-10-22T04:09:23;7.57;;;3.73;;
6564;SDS011;3316;44.118;27.258;2022-10-22T04:11:49;6.07;;;3.43;;
6564;SDS011;3316;44.118;27.258;2022-10-22T04:14:14;5.63;;;3.80;;
6564;SDS011;3316;44.118;27.258;2022-10-22T04:16:39;6.43;;;3.97;;
6564;SDS011;3316;44.118;27.258;2022-10-22T04:19:05;5.10;;;3.33;;
6564;SDS011;3316;44.118;27.258;2022-10-22T04:21:31;4.53;;;3.23;;
6564;SDS011;3316;44.118;27.258;2022-10-22T04:23:57;10.80;;;3.73;;
6564;SDS011;3316;44.118;27.258;2022-10-22T04:26:23;4.17;;;3.07;;
6564;SDS011;3316;44.118;27.258;2022-10-22T04:28:49;6.27;;;3.80;;
6564;SDS011;3316;44.118;27.258;2022-10-22T04:31:18;4.20;;;3.20;;
6564;SDS011;3316;44.118;27.258;2022-10-22T04:33:45;7.37;;;3.43;;
6564;SDS011;3316;44.118;27.258;2022-10-22T04:36:14;5.70;;;3.73;;
6564;SDS011;3316;44.118;27.258;2022-10-22T04:38:41;6.73;;;4.70;;
6564;SDS011;3316;44.118;27.258;2022-10-22T04:41:12;5.13;;;3.90;;
6564;SDS011;3316;44.118;27.258;2022-10-22T04:43:40;7.90;;;5.03;;
6564;SDS011;3316;44.118;27.258;2022-10-22T04:46:06;5.90;;;4.13;;
6564;SDS011;3316;44.118;27.258;2022-10-22T04:48:33;7.13;;;4.07;;
6564;SDS011;3316;44.118;27.258;2022-10-22T04:51:03;10.73;;;4.57;;
6564;SDS011;3316;44.118;27.258;2022-10-22T04:53:30;12.67;;;5.50;;
6564;SDS011;3316;44.118;27.258;2022-10-22T04:56:07;10.97;;;5.20;;
6564;SDS011;3316;44.118;27.258;2022-10-22T04:58:32;10.97;;;4.60;;
6564;SDS011;3316;44.118;27.258;2022-10-22T05:00:58;5.30;;;3.67;;
6564;SDS011;3316;44.118;27.258;2022-10-22T05:03:24;7.13;;;4.23;;
6564;SDS011;3316;44.118;27.258;2022-10-22T05:05:49;4.93;;;4.23;;
6564;SDS011;3316;44.118;27.258;2022-10-22T05:08:15;80.93;;;30.60;;
6564;SDS011;3316;44.118;27.258;2022-10-22T05:10:40;8.33;;;4.60;;
6564;SDS011;3316;44.118;27.258;2022-10-22T05:13:06;10.63;;;4.27;;
6564;SDS011;3316;44.118;27.258;2022-10-22T05:15:32;8.47;;;4.63;;
6564;SDS011;3316;44.118;27.258;2022-10-22T05:17:58;7.50;;;4.13;;
6564;SDS011;3316;44.118;27.258;2022-10-22T05:20:23;6.07;;;4.00;;
6564;SDS011;3316;44.118;27.258;2022-10-22T05:22:48;8.37;;;4.47;;
6564;SDS011;3316;44.118;27.258;2022-10-22T05:25:14;4.87;;;3.63;;
6564;SDS011;3316;44.118;27.258;2022-10-22T05:27:39;6.33;;;3.73;;
6564;SDS011;3316;44.118;27.258;2022-10-22T05:30:05;10.03;;;4.30;;
6564;SDS011;3316;44.118;27.258;2022-10-22T05:32:31;7.43;;;4.63;;
6564;SDS011;3316;44.118;27.258;2022-10-22T05:34:59;14.67;;;6.27;;
6564;SDS011;3316;44.118;27.258;2022-10-22T05:37:24;9.43;;;4.07;;
6564;SDS011;3316;44.118;27.258;2022-10-22T05:39:50;6.00;;;4.27;;
6564;SDS011;3316;44.118;27.258;2022-10-22T05:42:15;18.97;;;9.10;;
6564;SDS011;3316;44.118;27.258;2022-10-22T05:44:40;9.63;;;4.43;;
6564;SDS011;3316;44.118;27.258;2022-10-22T05:47:06;14.47;;;5.43;;
6564;SDS011;3316;44.118;27.258;2022-10-22T05:49:31;7.87;;;4.57;;
6564;SDS011;3316;44.118;27.258;2022-10-22T05:51:57;13.00;;;7.00;;
6564;SDS011;3316;44.118;27.258;2022-10-22T05:54:22;16.20;;;6.40;;
6564;SDS011;3316;44.118;27.258;2022-10-22T05:56:48;10.83;;;5.73;;
6564;SDS011;3316;44.118;27.258;2022-10-22T05:59:13;10.07;;;4.70;;
6564;SDS011;3316;44.118;27.258;2022-10-22T06:01:39;12.07;;;5.07;;
6564;SDS011;3316;44.118;27.258;2022-10-22T06:04:06;10.07;;;5.33;;
6564;SDS011;3316;44.118;27.258;2022-10-22T06:06:38;10.50;;;6.87;;
6564;SDS011;3316;44.118;27.258;2022-10-22T06:09:17;13.97;;;5.63;;
6564;SDS011;3316;44.118;27.258;2022-10-22T06:11:53;15.00;;;5.67;;
6564;SDS011;3316;44.118;27.258;2022-10-22T06:14:19;18.00;;;8.90;;
6564;SDS011;3316;44.118;27.258;2022-10-22T06:16:45;16.47;;;6.77;;
6564;SDS011;3316;44.118;27.258;2022-10-22T06:19:12;10.77;;;4.83;;
6564;SDS011;3316;44.118;27.258;2022-10-22T06:21:39;19.87;;;6.97;;
6564;SDS011;3316;44.118;27.258;2022-10-22T06:24:05;6.30;;;4.20;;
6564;SDS011;3316;44.118;27.258;2022-10-22T06:26:31;11.20;;;6.40;;
6564;SDS011;3316;44.118;27.258;2022-10-22T06:28:57;16.83;;;8.40;;
6564;SDS011;3316;44.118;27.258;2022-10-22T06:31:24;8.30;;;4.53;;
6564;SDS011;3316;44.118;27.258;2022-10-22T06:33:50;30.27;;;12.07;;
6564;SDS011;3316;44.118;27.258;2022-10-22T06:36:17;12.03;;;7.40;;
6564;SDS011;3316;44.118;27.258;2022-10-22T06:38:44;11.20;;;6.90;;
6564;SDS011;3316;44.118;27.258;2022-10-22T06:41:11;10.97;;;6.83;;
6564;SDS011;3316;44.118;27.258;2022-10-22T06:43:39;15.53;;;5.60;;
6564;SDS011;3316;44.118;27.258;2022-10-22T06:46:07;8.93;;;5.63;;
6564;SDS011;3316;44.118;27.258;2022-10-22T06:48:37;15.00;;;9.40;;
6564;SDS011;3316;44.118;27.258;2022-10-22T06:51:04;17.87;;;7.40;;
6564;SDS011;3316;44.118;27.258;2022-10-22T06:53:32;13.60;;;6.10;;
6564;SDS011;3316;44.118;27.258;2022-10-22T06:55:57;12.67;;;7.40;;
6564;SDS011;3316;44.118;27.258;2022-10-22T06:58:23;8.17;;;6.00;;
6564;SDS011;3316;44.118;27.258;2022-10-22T07:00:48;21.53;;;11.23;;
6564;SDS011;3316;44.118;27.258;2022-10-22T07:03:14;12.83;;;4.93;;
6564;SDS011;3316;44.118;27.258;2022-10-22T07:05:40;11.53;;;5.77;;
6564;SDS011;3316;44.118;27.258;2022-10-22T07:08:06;7.53;;;4.90;;
6564;SDS011;3316;44.118;27.258;2022-10-22T07:10:32;12.10;;;6.23;;
6564;SDS011;3316;44.118;27.258;2022-10-22T07:12:58;10.80;;;6.03;;
6564;SDS011;3316;44.118;27.258;2022-10-22T07:15:23;13.27;;;6.47;;
6564;SDS011;3316;44.118;27.258;2022-10-22T07:17:49;15.87;;;6.30;;
6564;SDS011;3316;44.118;27.258;2022-10-22T07:20:16;14.77;;;6.60;;
6564;SDS011;3316;44.118;27.258;2022-10-22T07:22:43;17.43;;;8.40;;
6564;SDS011;3316;44.118;27.258;2022-10-22T07:25:09;11.03;;;5.70;;
6564;SDS011;3316;44.118;27.258;2022-10-22T07:27:34;10.63;;;5.53;;
6564;SDS011;3316;44.118;27.258;2022-10-22T07:30:00;13.70;;;7.47;;
6564;SDS011;3316;44.118;27.258;2022-10-22T07:32:25;10.00;;;5.50;;
6564;SDS011;3316;44.118;27.258;2022-10-22T07:34:51;11.20;;;5.40;;
6564;SDS011;3316;44.118;27.258;2022-10-22T07:37:16;8.27;;;5.00;;
6564;SDS011;3316;44.118;27.258;2022-10-22T07:39:45;39.60;;;15.87;;
6564;SDS011;3316;44.118;27.258;2022-10-22T07:42:11;16.03;;;6.67;;
6564;SDS011;3316;44.118;27.258;2022-10-22T07:44:37;13.47;;;6.00;;
6564;SDS011;3316;44.118;27.258;2022-10-22T07:47:02;9.13;;;5.57;;
6564;SDS011;3316;44.118;27.258;2022-10-22T07:49:27;16.67;;;10.03;;
6564;SDS011;3316;44.118;27.258;2022-10-22T07:51:53;12.97;;;6.90;;
6564;SDS011;3316;44.118;27.258;2022-10-22T07:54:20;11.90;;;6.87;;
6564;SDS011;3316;44.118;27.258;2022-10-22T07:56:46;9.00;;;5.00;;
6564;SDS011;3316;44.118;27.258;2022-10-22T07:59:12;7.53;;;4.93;;
6564;SDS011;3316;44.118;27.258;2022-10-22T08:01:37;10.10;;;4.60;;
6564;SDS011;3316;44.118;27.258;2022-10-22T08:04:03;9.37;;;4.03;;
6564;SDS011;3316;44.118;27.258;2022-10-22T08:06:28;7.93;;;4.27;;
6564;SDS011;3316;44.118;27.258;2022-10-22T08:08:54;11.83;;;4.47;;
6564;SDS011;3316;44.118;27.258;2022-10-22T08:11:19;12.20;;;4.20;;
6564;SDS011;3316;44.118;27.258;2022-10-22T08:13:44;7.03;;;3.57;;
6564;SDS011;3316;44.118;27.258;2022-10-22T08:16:10;7.80;;;4.07;;
6564;SDS011;3316;44.118;27.258;2022-10-22T08:18:35;7.23;;;4.03;;
6564;SDS011;3316;44.118;27.258;2022-10-22T08:21:02;15.57;;;5.53;;
6564;SDS011;3316;44.118;27.258;2022-10-22T08:23:28;10.87;;;4.57;;
6564;SDS011;3316;44.118;27.258;2022-10-22T08:25:54;10.20;;;4.97;;
6564;SDS011;3316;44.118;27.258;2022-10-22T08:28:20;9.87;;;4.73;;
6564;SDS011;3316;44.118;27.258;2022-10-22T08:30:45;6.83;;;4.27;;
6564;SDS011;3316;44.118;27.258;2022-10-22T08:33:12;8.30;;;4.30;;
6564;SDS011;3316;44.118;27.258;2022-10-22T08:35:38;11.33;;;4.67;;
6564;SDS011;3316;44.118;27.258;2022-10-22T08:38:03;10.23;;;5.03;;
6564;SDS011;3316;44.118;27.258;2022-10-22T08:40:29;13.27;;;6.77;;
6564;SDS011;3316;44.118;27.258;2022-10-22T08:48:41;14.40;;;7.07;;
6564;SDS011;3316;44.118;27.258;2022-10-22T08:51:09;9.53;;;5.83;;
6564;SDS011;3316;44.118;27.258;2022-10-22T08:53:44;9.97;;;5.60;;
6564;SDS011;3316;44.118;27.258;2022-10-22T08:56:25;16.07;;;5.57;;
6564;SDS011;3316;44.118;27.258;2022-10-22T08:58:58;10.20;;;6.67;;
6564;SDS011;3316;44.118;27.258;2022-10-22T09:01:42;11.27;;;4.97;;
6564;SDS011;3316;44.118;27.258;2022-10-22T09:06:58;16.53;;;5.53;;
6564;SDS011;3316;44.118;27.258;2022-10-22T09:09:30;10.23;;;5.67;;
6564;SDS011;3316;44.118;27.258;2022-10-22T09:12:02;15.13;;;6.07;;
6564;SDS011;3316;44.118;27.258;2022-10-22T09:14:29;14.13;;;5.70;;
6564;SDS011;3316;44.118;27.258;2022-10-22T09:17:15;15.07;;;5.73;;
6564;SDS011;3316;44.118;27.258;2022-10-22T09:23:03;10.10;;;5.43;;
6564;SDS011;3316;44.118;27.258;2022-10-22T09:25:26;12.73;;;5.23;;
6564;SDS011;3316;44.118;27.258;2022-10-22T09:27:54;11.23;;;6.33;;
6564;SDS011;3316;44.118;27.258;2022-10-22T09:30:23;11.67;;;5.80;;
6564;SDS011;3316;44.118;27.258;2022-10-22T09:35:32;14.43;;;7.90;;
6564;SDS011;3316;44.118;27.258;2022-10-22T09:38:05;24.30;;;10.90;;
6564;SDS011;3316;44.118;27.258;2022-10-22T09:40:40;14.83;;;6.67;;
6564;SDS011;3316;44.118;27.258;2022-10-22T09:43:13;18.40;;;5.50;;
6564;SDS011;3316;44.118;27.258;2022-10-22T09:45:39;26.50;;;11.23;;
6564;SDS011;3316;44.118;27.258;2022-10-22T09:48:09;6.90;;;4.20;;
6564;SDS011;3316;44.118;27.258;2022-10-22T09:50:43;8.03;;;4.93;;
6564;SDS011;3316;44.118;27.258;2022-10-22T09:55:39;11.23;;;5.90;;
6564;SDS011;3316;44.118;27.258;2022-10-22T09:58:12;27.63;;;11.90;;
6564;SDS011;3316;44.118;27.258;2022-10-22T10:00:39;19.23;;;8.73;;
6564;SDS011;3316;44.118;27.258;2022-10-22T10:03:11;47.30;;;20.03;;
6564;SDS011;3316;44.118;27.258;2022-10-22T10:05:41;20.40;;;8.50;;
6564;SDS011;3316;44.118;27.258;2022-10-22T10:08:11;24.70;;;9.17;;
6564;SDS011;3316;44.118;27.258;2022-10-22T10:24:11;57.90;;;23.30;;
6564;SDS011;3316;44.118;27.258;2022-10-22T10:26:54;38.10;;;18.50;;
6564;SDS011;3316;44.118;27.258;2022-10-22T10:29:30;7.87;;;5.40;;
6564;SDS011;3316;44.118;27.258;2022-10-22T10:35:00;10.73;;;5.60;;
6564;SDS011;3316;44.118;27.258;2022-10-22T10:37:29;17.60;;;5.77;;
6564;SDS011;3316;44.118;27.258;2022-10-22T10:43:20;13.00;;;5.50;;
6564;SDS011;3316;44.118;27.258;2022-10-22T10:45:42;12.27;;;5.83;;
6564;SDS011;3316;44.118;27.258;2022-10-22T10:48:34;9.83;;;5.20;;
6564;SDS011;3316;44.118;27.258;2022-10-22T10:56:36;9.40;;;5.53;;
6564;SDS011;3316;44.118;27.258;2022-10-22T11:02:14;12.20;;;5.47;;
6564;SDS011;3316;44.118;27.258;2022-10-22T11:07:30;10.93;;;5.33;;
6564;SDS011;3316;44.118;27.258;2022-10-22T11:10:02;15.63;;;5.87;;
6564;SDS011;3316;44.118;27.258;2022-10-22T11:12:41;10.67;;;4.90;;
6564;SDS011;3316;44.118;27.258;2022-10-22T11:15:32;18.87;;;5.77;;
6564;SDS011;3316;44.118;27.258;2022-10-22T11:20:40;8.63;;;4.30;;
6564;SDS011;3316;44.118;27.258;2022-10-22T11:23:16;20.27;;;9.87;;
6564;SDS011;3316;44.118;27.258;2022-10-22T11:25:48;128.67;;;47.93;;
6564;SDS011;3316;44.118;27.258;2022-10-22T11:28:35;20.43;;;10.60;;
6564;SDS011;3316;44.118;27.258;2022-10-22T11:31:12;23.70;;;8.23;;
6564;SDS011;3316;44.118;27.258;2022-10-22T11:33:52;12.07;;;7.00;;
6564;SDS011;3316;44.118;27.258;2022-10-22T11:36:27;17.57;;;7.23;;
6564;SDS011;3316;44.118;27.258;2022-10-22T11:38:55;23.53;;;11.33;;
6564;SDS011;3316;44.118;27.258;2022-10-22T11:41:24;11.03;;;6.63;;
6564;SDS011;3316;44.118;27.258;2022-10-22T11:46:37;16.77;;;6.70;;
6564;SDS011;3316;44.118;27.258;2022-10-22T11:49:27;12.47;;;5.70;;
6564;SDS011;3316;44.118;27.258;2022-10-22T11:57:55;24.30;;;12.83;;
6564;SDS011;3316;44.118;27.258;2022-10-22T12:00:34;18.40;;;8.87;;
6564;SDS011;3316;44.118;27.258;2022-10-22T12:03:18;33.00;;;12.77;;
6564;SDS011;3316;44.118;27.258;2022-10-22T12:14:24;11.10;;;5.23;;
6564;SDS011;3316;44.118;27.258;2022-10-22T12:17:12;12.53;;;6.77;;
6564;SDS011;3316;44.118;27.258;2022-10-22T12:19:41;10.77;;;6.23;;
6564;SDS011;3316;44.118;27.258;2022-10-22T12:24:35;37.33;;;14.63;;
6564;SDS011;3316;44.118;27.258;2022-10-22T12:27:02;17.37;;;5.60;;
6564;SDS011;3316;44.118;27.258;2022-10-22T12:29:30;15.83;;;7.00;;
6564;SDS011;3316;44.118;27.258;2022-10-22T12:32:00;12.70;;;5.70;;
6564;SDS011;3316;44.118;27.258;2022-10-22T12:34:28;12.93;;;7.30;;
6564;SDS011;3316;44.118;27.258;2022-10-22T12:36:54;8.03;;;5.20;;
6564;SDS011;3316;44.118;27.258;2022-10-22T12:39:20;9.93;;;5.93;;
6564;SDS011;3316;44.118;27.258;2022-10-22T12:41:50;11.33;;;4.67;;
6564;SDS011;3316;44.118;27.258;2022-10-22T12:44:16;7.33;;;4.17;;
6564;SDS011;3316;44.118;27.258;2022-10-22T12:46:43;10.87;;;4.60;;
6564;SDS011;3316;44.118;27.258;2022-10-22T12:49:13;9.47;;;3.80;;
6564;SDS011;3316;44.118;27.258;2022-10-22T12:51:43;13.10;;;6.07;;
6564;SDS011;3316;44.118;27.258;2022-10-22T12:54:13;9.83;;;4.90;;
6564;SDS011;3316;44.118;27.258;2022-10-22T12:56:54;17.63;;;6.17;;
6564;SDS011;3316;44.118;27.258;2022-10-22T12:59:28;11.70;;;7.13;;
6564;SDS011;3316;44.118;27.258;2022-10-22T13:01:54;7.27;;;5.10;;
6564;SDS011;3316;44.118;27.258;2022-10-22T13:04:31;9.03;;;5.53;;
6564;SDS011;3316;44.118;27.258;2022-10-22T13:07:17;10.73;;;4.50;;
6564;SDS011;3316;44.118;27.258;2022-10-22T13:09:44;6.07;;;4.93;;
6564;SDS011;3316;44.118;27.258;2022-10-22T13:12:10;9.57;;;4.77;;
6564;SDS011;3316;44.118;27.258;2022-10-22T13:14:40;8.17;;;4.63;;
6564;SDS011;3316;44.118;27.258;2022-10-22T13:24:54;9.00;;;4.40;;
6564;SDS011;3316;44.118;27.258;2022-10-22T13:27:21;10.60;;;5.33;;
6564;SDS011;3316;44.118;27.258;2022-10-22T13:29:47;14.53;;;6.30;;
6564;SDS011;3316;44.118;27.258;2022-10-22T13:32:32;13.80;;;7.03;;
6564;SDS011;3316;44.118;27.258;2022-10-22T13:34:59;13.00;;;7.13;;
6564;SDS011;3316;44.118;27.258;2022-10-22T13:37:26;13.87;;;6.03;;
6564;SDS011;3316;44.118;27.258;2022-10-22T13:39:54;13.47;;;8.03;;
6564;SDS011;3316;44.118;27.258;2022-10-22T13:42:19;12.40;;;6.20;;
6564;SDS011;3316;44.118;27.258;2022-10-22T13:44:45;14.43;;;5.97;;
6564;SDS011;3316;44.118;27.258;2022-10-22T13:47:23;10.57;;;5.37;;
6564;SDS011;3316;44.118;27.258;2022-10-22T13:49:52;12.97;;;5.00;;
6564;SDS011;3316;44.118;27.258;2022-10-22T13:52:35;9.40;;;5.10;;
6564;SDS011;3316;44.118;27.258;2022-10-22T13:55:12;11.40;;;4.83;;
6564;SDS011;3316;44.118;27.258;2022-10-22T13:57:38;8.30;;;5.00;;
6564;SDS011;3316;44.118;27.258;2022-10-22T14:00:04;12.73;;;5.80;;
6564;SDS011;3316;44.118;27.258;2022-10-22T14:02:30;12.93;;;4.70;;
6564;SDS011;3316;44.118;27.258;2022-10-22T14:04:55;6.93;;;4.97;;
6564;SDS011;3316;44.118;27.258;2022-10-22T14:07:27;8.30;;;5.27;;
6564;SDS011;3316;44.118;27.258;2022-10-22T14:09:52;11.70;;;5.73;;
6564;SDS011;3316;44.118;27.258;2022-10-22T14:12:18;14.50;;;5.30;;
6564;SDS011;3316;44.118;27.258;2022-10-22T14:14:43;8.90;;;5.40;;
6564;SDS011;3316;44.118;27.258;2022-10-22T14:17:12;6.10;;;4.67;;
6564;SDS011;3316;44.118;27.258;2022-10-22T14:19:44;13.10;;;5.80;;
6564;SDS011;3316;44.118;27.258;2022-10-22T14:22:15;15.40;;;5.97;;
6564;SDS011;3316;44.118;27.258;2022-10-22T14:24:43;20.73;;;7.43;;
6564;SDS011;3316;44.118;27.258;2022-10-22T14:27:13;27.90;;;7.10;;
6564;SDS011;3316;44.118;27.258;2022-10-22T14:29:39;17.23;;;6.43;;
6564;SDS011;3316;44.118;27.258;2022-10-22T14:32:12;11.07;;;5.53;;
6564;SDS011;3316;44.118;27.258;2022-10-22T14:34:39;11.60;;;5.37;;
6564;SDS011;3316;44.118;27.258;2022-10-22T14:37:10;9.53;;;5.50;;
6564;SDS011;3316;44.118;27.258;2022-10-22T14:39:39;21.30;;;8.37;;
6564;SDS011;3316;44.118;27.258;2022-10-22T14:42:07;16.97;;;7.67;;
6564;SDS011;3316;44.118;27.258;2022-10-22T14:44:35;309.37;;;118.70;;
6564;SDS011;3316;44.118;27.258;2022-10-22T14:47:00;81.77;;;31.07;;
6564;SDS011;3316;44.118;27.258;2022-10-22T14:49:26;45.63;;;22.67;;
6564;SDS011;3316;44.118;27.258;2022-10-22T14:51:51;27.73;;;11.10;;
6564;SDS011;3316;44.118;27.258;2022-10-22T14:54:16;24.37;;;9.87;;
6564;SDS011;3316;44.118;27.258;2022-10-22T14:56:42;35.87;;;11.43;;
6564;SDS011;3316;44.118;27.258;2022-10-22T14:59:08;29.73;;;10.03;;
6564;SDS011;3316;44.118;27.258;2022-10-22T15:01:33;30.90;;;14.10;;
6564;SDS011;3316;44.118;27.258;2022-10-22T15:03:59;29.47;;;14.80;;
6564;SDS011;3316;44.118;27.258;2022-10-22T15:06:25;29.47;;;13.77;;
6564;SDS011;3316;44.118;27.258;2022-10-22T15:08:50;19.07;;;10.10;;
6564;SDS011;3316;44.118;27.258;2022-10-22T15:11:16;18.17;;;8.73;;
6564;SDS011;3316;44.118;27.258;2022-10-22T15:13:41;14.73;;;8.03;;
6564;SDS011;3316;44.118;27.258;2022-10-22T15:16:08;13.87;;;6.73;;
6564;SDS011;3316;44.118;27.258;2022-10-22T15:18:35;15.83;;;6.50;;
6564;SDS011;3316;44.118;27.258;2022-10-22T15:21:01;42.80;;;17.00;;
6564;SDS011;3316;44.118;27.258;2022-10-22T15:23:29;25.90;;;9.47;;
6564;SDS011;3316;44.118;27.258;2022-10-22T15:25:55;10.23;;;6.27;;
6564;SDS011;3316;44.118;27.258;2022-10-22T15:28:21;16.53;;;7.10;;
6564;SDS011;3316;44.118;27.258;2022-10-22T15:30:51;24.90;;;10.40;;
6564;SDS011;3316;44.118;27.258;2022-10-22T15:33:20;20.50;;;10.73;;
6564;SDS011;3316;44.118;27.258;2022-10-22T15:35:46;38.67;;;13.20;;
6564;SDS011;3316;44.118;27.258;2022-10-22T15:38:11;28.80;;;13.20;;
6564;SDS011;3316;44.118;27.258;2022-10-22T15:40:36;30.53;;;13.17;;
6564;SDS011;3316;44.118;27.258;2022-10-22T15:43:02;25.10;;;10.27;;
6564;SDS011;3316;44.118;27.258;2022-10-22T15:45:27;33.30;;;13.47;;
6564;SDS011;3316;44.118;27.258;2022-10-22T15:47:53;22.00;;;11.43;;
6564;SDS011;3316;44.118;27.258;2022-10-22T15:50:18;19.97;;;9.03;;
6564;SDS011;3316;44.118;27.258;2022-10-22T15:52:44;24.20;;;11.97;;
6564;SDS011;3316;44.118;27.258;2022-10-22T15:55:09;28.43;;;11.87;;
6564;SDS011;3316;44.118;27.258;2022-10-22T15:57:35;31.63;;;14.23;;
6564;SDS011;3316;44.118;27.258;2022-10-22T16:00:02;35.53;;;14.27;;
6564;SDS011;3316;44.118;27.258;2022-10-22T16:02:29;31.50;;;15.00;;
6564;SDS011;3316;44.118;27.258;2022-10-22T16:04:54;34.87;;;14.03;;
6564;SDS011;3316;44.118;27.258;2022-10-22T16:07:20;43.03;;;19.40;;
6564;SDS011;3316;44.118;27.258;2022-10-22T16:09:45;39.90;;;18.97;;
6564;SDS011;3316;44.118;27.258;2022-10-22T16:12:12;46.10;;;21.43;;
6564;SDS011;3316;44.118;27.258;2022-10-22T16:14:37;46.40;;;24.10;;
6564;SDS011;3316;44.118;27.258;2022-10-22T16:17:03;55.03;;;25.60;;
6564;SDS011;3316;44.118;27.258;2022-10-22T16:19:28;51.07;;;21.97;;
6564;SDS011;3316;44.118;27.258;2022-10-22T16:21:54;46.83;;;25.00;;
6564;SDS011;3316;44.118;27.258;2022-10-22T16:24:20;48.37;;;20.77;;
6564;SDS011;3316;44.118;27.258;2022-10-22T16:26:46;61.70;;;25.53;;
6564;SDS011;3316;44.118;27.258;2022-10-22T16:29:13;81.77;;;40.90;;
6564;SDS011;3316;44.118;27.258;2022-10-22T16:31:39;117.17;;;56.93;;
6564;SDS011;3316;44.118;27.258;2022-10-22T16:34:06;124.50;;;61.53;;
6564;SDS011;3316;44.118;27.258;2022-10-22T16:36:32;114.50;;;60.17;;
6564;SDS011;3316;44.118;27.258;2022-10-22T16:38:57;106.23;;;56.10;;
6564;SDS011;3316;44.118;27.258;2022-10-22T16:41:23;93.53;;;48.00;;